Time;durP1;ratioP1;P1;durP2;ratioP2;P2;SDS_P1;SDS_P2;PMS_P1;PMS_P2;Temp;Humidity;BMP_temperature;BMP_pressure;BME280_temperature;BME280_humidity;BME280_pressure;Samples;Min_cycle;Max_cycle;Signal;HPM_P1;HPM_P2
2024/04/16 00:00:24;;;;;;;0.57;0.57;;;10.50;60.10;;;;;;5399170;26;20241;-58
2024/04/16 00:02:49;;;;;;;0.87;0.60;;;10.50;59.30;;;;;;5393795;26;20239;-56
2024/04/16 00:05:15;;;;;;;2.43;0.63;;;10.60;59.40;;;;;;5399385;26;20317;-57
2024/04/16 00:07:40;;;;;;;0.70;0.70;;;10.60;59.00;;;;;;5398415;26;20340;-60
2024/04/16 00:10:06;;;;;;;0.77;0.63;;;10.00;59.10;;;;;;5400770;26;20229;-59
2024/04/16 00:12:32;;;;;;;1.37;0.70;;;10.00;60.30;;;;;;5403552;26;21116;-61
2024/04/16 00:14:57;;;;;;;1.00;0.63;;;10.00;60.00;;;;;;5394693;26;20590;-60
2024/04/16 00:17:27;;;;;;;0.60;0.50;;;10.10;60.10;;;;;;5404483;26;20245;-59
2024/04/16 00:19:54;;;;;;;1.00;0.50;;;10.00;60.30;;;;;;5408192;26;20253;-60
2024/04/16 00:22:19;;;;;;;1.73;1.20;;;10.00;60.60;;;;;;5405742;26;20471;-58
2024/04/16 00:24:45;;;;;;;2.27;0.70;;;9.90;62.60;;;;;;5399384;26;20607;-60
2024/04/16 00:27:10;;;;;;;1.40;0.70;;;9.80;62.60;;;;;;5400273;26;20261;-59
2024/04/16 00:29:36;;;;;;;1.73;0.60;;;10.00;61.60;;;;;;5397685;26;20276;-61
2024/04/16 00:32:01;;;;;;;0.90;0.70;;;9.90;63.10;;;;;;5401292;26;20233;-58
2024/04/16 00:34:27;;;;;;;3.07;0.90;;;10.00;61.40;;;;;;5397051;26;20260;-59
2024/04/16 00:36:53;;;;;;;0.70;0.60;;;10.10;61.60;;;;;;5391056;26;20231;-59
2024/04/16 00:39:18;;;;;;;2.37;1.07;;;10.10;61.40;;;;;;5390600;26;20221;-59
2024/04/16 00:41:47;;;;;;;1.37;0.87;;;10.40;61.00;;;;;;5394332;26;20335;-59
2024/04/16 00:44:12;;;;;;;1.43;0.93;;;10.50;60.30;;;;;;5400531;26;20276;-62
2024/04/16 00:46:38;;;;;;;0.70;0.70;;;10.60;59.80;;;;;;5374516;26;20469;-62
2024/04/16 00:49:04;;;;;;;1.63;1.00;;;10.80;59.30;;;;;;5397223;26;20230;-58
2024/04/16 00:51:31;;;;;;;1.63;0.67;;;10.70;58.80;;;;;;5387045;26;20734;-57
2024/04/16 00:53:57;;;;;;;1.03;0.70;;;10.20;58.80;;;;;;5392059;26;20551;-58
2024/04/16 00:56:23;;;;;;;1.90;0.80;;;9.80;60.80;;;;;;5406245;26;20451;-61
2024/04/16 00:58:48;;;;;;;3.37;0.90;;;9.90;62.10;;;;;;5393523;26;20226;-60
2024/04/16 01:01:14;;;;;;;2.50;0.90;;;9.70;62.30;;;;;;5404594;26;20269;-63
2024/04/16 01:03:43;;;;;;;1.10;0.70;;;9.90;62.40;;;;;;5405806;26;20231;-60
2024/04/16 01:06:08;;;;;;;2.00;0.80;;;9.90;62.40;;;;;;5394416;26;20383;-61
2024/04/16 01:08:34;;;;;;;1.50;0.67;;;9.90;62.40;;;;;;5406245;26;21030;-60
2024/04/16 01:10:59;;;;;;;1.00;0.80;;;9.80;62.80;;;;;;5399402;26;20288;-59
2024/04/16 01:13:25;;;;;;;0.90;0.60;;;9.80;62.90;;;;;;5411155;26;20233;-59
2024/04/16 01:15:50;;;;;;;1.03;0.83;;;9.90;62.70;;;;;;5410064;26;20281;-60
2024/04/16 01:18:16;;;;;;;1.03;0.80;;;10.00;60.90;;;;;;5397907;26;20305;-61
2024/04/16 01:20:42;;;;;;;3.23;1.00;;;9.70;62.40;;;;;;5396313;26;20350;-58
2024/04/16 01:23:07;;;;;;;2.03;0.90;;;9.70;62.40;;;;;;5400653;26;20237;-60
2024/04/16 01:25:35;;;;;;;1.93;0.87;;;9.50;62.50;;;;;;5400496;26;20299;-58
2024/04/16 01:28:01;;;;;;;1.37;0.97;;;9.60;63.40;;;;;;5399740;26;20857;-59
2024/04/16 01:30:27;;;;;;;2.07;0.80;;;9.70;63.00;;;;;;5398159;26;20554;-61
2024/04/16 01:32:53;;;;;;;1.43;0.80;;;9.70;62.90;;;;;;5399044;26;20615;-60
2024/04/16 01:35:18;;;;;;;0.70;0.70;;;9.80;62.90;;;;;;5397385;26;20491;-61
2024/04/16 01:37:44;;;;;;;1.17;0.67;;;10.00;61.40;;;;;;5395969;26;20245;-61
2024/04/16 01:40:11;;;;;;;0.80;0.80;;;10.00;61.00;;;;;;5400149;26;20876;-58
2024/04/16 01:42:37;;;;;;;1.90;1.00;;;9.90;61.80;;;;;;5399437;26;20243;-61
2024/04/16 01:45:02;;;;;;;1.53;0.80;;;9.80;61.70;;;;;;5399704;26;21507;-61
2024/04/16 01:47:28;;;;;;;3.33;0.80;;;9.70;62.80;;;;;;5397636;26;20301;-60
2024/04/16 01:49:53;;;;;;;1.07;0.80;;;9.80;62.30;;;;;;5398382;26;20276;-62
2024/04/16 01:52:19;;;;;;;1.27;0.90;;;9.80;62.30;;;;;;5396394;26;20245;-61
2024/04/16 01:54:44;;;;;;;3.30;1.10;;;9.70;62.20;;;;;;5399012;26;20792;-60
2024/04/16 01:57:10;;;;;;;2.00;0.83;;;9.60;62.50;;;;;;5392668;26;20261;-57
2024/04/16 01:59:36;;;;;;;3.37;1.70;;;9.70;62.70;;;;;;5395758;26;20239;-59
2024/04/16 02:02:01;;;;;;;4.10;1.57;;;9.50;62.90;;;;;;5399360;26;20720;-61
2024/04/16 02:04:28;;;;;;;1.57;0.87;;;9.60;62.40;;;;;;5394497;26;20241;-61
2024/04/16 02:06:53;;;;;;;2.37;1.10;;;9.60;62.10;;;;;;5393251;26;20258;-61
2024/04/16 02:09:19;;;;;;;3.50;1.20;;;9.70;62.50;;;;;;5403889;26;20464;-60
2024/04/16 02:11:45;;;;;;;2.10;1.23;;;9.70;61.90;;;;;;5392655;26;20288;-61
2024/04/16 02:14:10;;;;;;;2.23;1.00;;;9.70;61.80;;;;;;5399121;26;20284;-58
2024/04/16 02:16:36;;;;;;;1.80;0.87;;;9.70;61.90;;;;;;5397505;26;20249;-57
2024/04/16 02:19:02;;;;;;;2.70;0.93;;;9.80;62.70;;;;;;5409631;26;20349;-61
2024/04/16 02:21:27;;;;;;;4.10;1.00;;;10.00;61.30;;;;;;5405759;26;20277;-59
2024/04/16 02:23:53;;;;;;;5.00;1.40;;;10.00;60.80;;;;;;5397489;26;20249;-60
2024/04/16 02:26:18;;;;;;;1.90;0.90;;;10.10;60.80;;;;;;5404107;26;20342;-59
2024/04/16 02:28:44;;;;;;;2.80;1.00;;;10.30;60.10;;;;;;5402341;26;20237;-57
2024/04/16 02:31:10;;;;;;;3.70;1.33;;;10.30;59.50;;;;;;5394865;26;20241;-60
2024/04/16 02:33:35;;;;;;;1.43;0.87;;;10.30;59.70;;;;;;5397579;26;20333;-57
2024/04/16 02:36:02;;;;;;;1.53;1.00;;;10.30;59.10;;;;;;5397125;26;20292;-59
2024/04/16 02:38:28;;;;;;;3.67;1.23;;;10.20;59.20;;;;;;5397993;26;20247;-60
2024/04/16 02:40:54;;;;;;;2.40;0.97;;;10.40;59.00;;;;;;5396816;26;20590;-58
2024/04/16 02:43:19;;;;;;;1.40;0.90;;;10.30;58.80;;;;;;5392871;26;20280;-58
2024/04/16 02:45:45;;;;;;;4.20;1.03;;;10.40;59.00;;;;;;5398030;26;20329;-58
2024/04/16 02:48:10;;;;;;;2.17;1.00;;;10.20;58.80;;;;;;5400377;26;20321;-59
2024/04/16 02:50:36;;;;;;;3.50;1.10;;;10.20;59.10;;;;;;5398993;26;20245;-57
2024/04/16 02:53:02;;;;;;;3.63;1.00;;;9.90;61.10;;;;;;5395786;26;20694;-58
2024/04/16 02:55:27;;;;;;;4.53;1.30;;;9.70;62.30;;;;;;5396661;26;20237;-59
2024/04/16 02:57:53;;;;;;;5.90;1.70;;;9.70;63.10;;;;;;5398994;26;20245;-59
2024/04/16 03:00:18;;;;;;;1.87;1.20;;;9.70;63.90;;;;;;5396953;26;20921;-61
2024/04/16 03:02:44;;;;;;;4.23;1.40;;;9.50;63.70;;;;;;5399994;26;20345;-60
2024/04/16 03:05:10;;;;;;;2.40;1.50;;;9.30;65.60;;;;;;5392169;26;20625;-59
2024/04/16 03:07:36;;;;;;;2.77;1.37;;;9.10;67.50;;;;;;5396488;26;20253;-60
2024/04/16 03:10:01;;;;;;;3.10;1.00;;;9.20;68.50;;;;;;5392773;26;20246;-60
2024/04/16 03:12:27;;;;;;;2.70;1.00;;;9.30;69.00;;;;;;5395382;26;20597;-61
2024/04/16 03:14:53;;;;;;;2.10;1.10;;;9.40;68.10;;;;;;5400603;26;20340;-59
2024/04/16 03:17:20;;;;;;;4.50;1.00;;;9.50;68.00;;;;;;5398141;26;20255;-60
2024/04/16 03:19:45;;;;;;;4.80;1.30;;;9.60;67.80;;;;;;5398554;26;20590;-60
2024/04/16 03:22:11;;;;;;;3.23;1.30;;;9.50;67.00;;;;;;5406374;26;20471;-59
2024/04/16 03:24:37;;;;;;;5.07;1.53;;;9.30;67.00;;;;;;5401168;26;20725;-60
2024/04/16 03:27:02;;;;;;;1.63;1.13;;;9.30;66.10;;;;;;5391199;26;20289;-59
2024/04/16 03:29:28;;;;;;;4.43;1.03;;;9.20;66.30;;;;;;5400440;26;20243;-60
2024/04/16 03:31:53;;;;;;;2.67;1.20;;;9.00;66.40;;;;;;5402042;26;20233;-61
2024/04/16 03:34:19;;;;;;;3.07;1.20;;;8.90;67.40;;;;;;5401625;26;20250;-58
2024/04/16 03:36:45;;;;;;;1.47;0.83;;;9.00;67.60;;;;;;5396067;26;20241;-60
2024/04/16 03:39:10;;;;;;;4.50;1.10;;;9.10;67.50;;;;;;5401593;26;20250;-58
2024/04/16 03:41:36;;;;;;;6.03;1.80;;;9.10;67.30;;;;;;5399113;26;20280;-59
2024/04/16 03:44:01;;;;;;;3.60;1.20;;;9.20;66.60;;;;;;5411069;26;20235;-60
2024/04/16 03:46:27;;;;;;;1.27;0.77;;;9.20;66.20;;;;;;5404780;26;20250;-60
2024/04/16 03:48:52;;;;;;;6.13;1.80;;;9.10;65.30;;;;;;5410200;26;20728;-58
2024/04/16 03:51:19;;;;;;;4.27;1.37;;;9.20;65.30;;;;;;5409405;26;20784;-60
2024/04/16 03:53:45;;;;;;;4.73;1.03;;;9.30;64.90;;;;;;5404701;26;20238;-59
2024/04/16 03:56:11;;;;;;;2.77;1.20;;;9.50;65.00;;;;;;5403252;26;20600;-60
2024/04/16 03:58:44;;;;;;;1.57;1.20;;;9.70;64.50;;;;;;5391066;26;20477;-59
2024/04/16 04:01:10;;;;;;;4.77;1.43;;;10.00;62.80;;;;;;5392086;26;20234;-58
2024/04/16 04:03:35;;;;;;;3.60;1.10;;;9.80;63.70;;;;;;5397191;26;20521;-58
2024/04/16 04:06:01;;;;;;;2.20;1.00;;;10.10;61.70;;;;;;5401604;26;20246;-60
2024/04/16 04:08:27;;;;;;;2.87;1.20;;;10.00;61.40;;;;;;5399732;26;20677;-58
2024/04/16 04:10:53;;;;;;;2.37;1.30;;;10.20;61.30;;;;;;5403226;26;20330;-58
2024/04/16 04:13:19;;;;;;;2.37;1.40;;;10.20;61.10;;;;;;5401031;26;20734;-60
2024/04/16 04:15:44;;;;;;;2.43;1.20;;;10.30;60.40;;;;;;5402444;26;20482;-59
2024/04/16 04:18:10;;;;;;;2.80;1.23;;;10.10;60.50;;;;;;5409751;26;20475;-60
2024/04/16 04:20:39;;;;;;;2.63;1.30;;;10.20;60.60;;;;;;5411973;26;20242;-60
2024/04/16 04:23:06;;;;;;;4.37;1.27;;;10.00;60.30;;;;;;5406865;26;20338;-59
2024/04/16 04:25:31;;;;;;;4.93;1.37;;;10.20;60.10;;;;;;5402925;26;20491;-60
2024/04/16 04:27:57;;;;;;;2.90;1.70;;;10.30;59.70;;;;;;5394710;26;21391;-58
2024/04/16 04:30:22;;;;;;;1.80;1.43;;;10.40;59.50;;;;;;5403130;26;20242;-59
2024/04/16 04:32:48;;;;;;;5.10;1.43;;;10.60;59.20;;;;;;5401109;26;20237;-60
2024/04/16 04:35:14;;;;;;;3.60;1.27;;;10.40;58.50;;;;;;5401672;26;20273;-60
2024/04/16 04:37:40;;;;;;;3.37;1.40;;;10.60;58.60;;;;;;5402343;26;20467;-60
2024/04/16 04:40:06;;;;;;;3.47;1.60;;;10.90;58.40;;;;;;5401802;26;20245;-59
2024/04/16 04:42:31;;;;;;;2.27;1.40;;;10.90;58.50;;;;;;5401852;26;20237;-59
2024/04/16 04:44:57;;;;;;;3.23;1.03;;;11.00;58.70;;;;;;5402591;26;20524;-58
2024/04/16 04:47:23;;;;;;;1.53;0.87;;;11.00;58.70;;;;;;5399105;26;20284;-59
2024/04/16 04:49:48;;;;;;;1.00;0.90;;;10.80;58.90;;;;;;5400528;26;20268;-59
2024/04/16 04:52:14;;;;;;;6.03;1.40;;;10.90;59.00;;;;;;5400237;26;21033;-61
2024/04/16 04:54:39;;;;;;;2.53;1.07;;;11.00;58.90;;;;;;5397879;26;20666;-59
2024/04/16 04:57:05;;;;;;;4.80;1.40;;;11.10;58.80;;;;;;5400231;26;20241;-59
2024/04/16 04:59:31;;;;;;;3.10;1.13;;;11.10;58.60;;;;;;5397254;26;20241;-60
2024/04/16 05:01:58;;;;;;;0.87;0.80;;;11.20;58.40;;;;;;5399637;26;20516;-59
2024/04/16 05:04:23;;;;;;;3.53;1.30;;;11.20;58.30;;;;;;5400346;26;20242;-59
2024/04/16 05:06:49;;;;;;;1.10;0.73;;;11.30;58.20;;;;;;5398145;26;20521;-60
2024/04/16 05:09:14;;;;;;;2.50;1.00;;;11.10;58.00;;;;;;5399148;26;20242;-60
2024/04/16 05:11:40;;;;;;;1.57;1.33;;;11.20;58.00;;;;;;5397249;26;20238;-60
2024/04/16 05:14:09;;;;;;;3.23;1.67;;;11.10;57.70;;;;;;5399366;26;20760;-59
2024/04/16 05:16:36;;;;;;;10.47;2.30;;;11.10;57.70;;;;;;5398452;26;20245;-60
2024/04/16 05:19:05;;;;;;;8.30;1.80;;;11.40;63.00;;;;;;5397944;26;20522;-59
2024/04/16 05:21:31;;;;;;;6.93;1.23;;;11.90;65.20;;;;;;5397148;26;21090;-60
2024/04/16 05:23:56;;;;;;;3.63;1.20;;;12.40;63.30;;;;;;5395416;26;20633;-60
2024/04/16 05:26:22;;;;;;;4.20;1.50;;;12.70;60.60;;;;;;5403325;26;20975;-58
2024/04/16 05:28:51;;;;;;;2.77;1.30;;;12.80;57.70;;;;;;5403254;26;20725;-60
2024/04/16 05:31:17;;;;;;;1.50;1.20;;;13.00;57.40;;;;;;5396072;26;20272;-59
2024/04/16 05:33:43;;;;;;;1.97;0.93;;;13.20;57.00;;;;;;5394108;26;20475;-59
2024/04/16 05:36:08;;;;;;;0.97;0.80;;;13.30;56.00;;;;;;5398335;26;20531;-60
2024/04/16 05:38:34;;;;;;;2.17;1.10;;;13.30;54.80;;;;;;5400051;26;20246;-59
2024/04/16 05:41:02;;;;;;;3.00;1.20;;;13.20;54.40;;;;;;5397325;26;20260;-60
2024/04/16 05:43:27;;;;;;;4.03;1.50;;;13.10;54.10;;;;;;5395768;26;20479;-61
2024/04/16 05:45:54;;;;;;;2.10;0.97;;;12.90;54.20;;;;;;5403287;26;21022;-61
2024/04/16 05:48:19;;;;;;;1.43;0.90;;;12.60;54.60;;;;;;5395285;26;20249;-60
2024/04/16 05:50:45;;;;;;;2.17;0.87;;;12.40;55.30;;;;;;5393402;26;20577;-60
2024/04/16 05:53:10;;;;;;;0.90;0.80;;;12.30;55.30;;;;;;5392340;26;20421;-60
2024/04/16 05:55:36;;;;;;;1.63;1.30;;;12.20;55.40;;;;;;5394863;26;20807;-60
2024/04/16 05:58:02;;;;;;;2.37;1.03;;;12.10;55.20;;;;;;5395616;26;20314;-59
2024/04/16 06:00:27;;;;;;;2.50;1.00;;;12.10;55.30;;;;;;5392646;26;20276;-60
2024/04/16 06:02:53;;;;;;;2.50;0.97;;;12.00;55.60;;;;;;5405487;26;20268;-60
2024/04/16 06:05:19;;;;;;;2.00;1.10;;;12.00;55.60;;;;;;5399918;26;20830;-60
2024/04/16 06:07:44;;;;;;;2.00;0.87;;;12.00;55.80;;;;;;5389649;26;20285;-60
2024/04/16 06:10:10;;;;;;;2.83;1.27;;;12.00;55.90;;;;;;5399876;26;20334;-61
2024/04/16 06:12:36;;;;;;;2.40;1.20;;;12.10;55.90;;;;;;5394132;26;20293;-60
2024/04/16 06:15:01;;;;;;;4.97;1.07;;;12.10;56.00;;;;;;5390118;26;20343;-59
2024/04/16 06:17:27;;;;;;;1.00;0.87;;;12.20;55.70;;;;;;5385364;26;20297;-60
2024/04/16 06:19:52;;;;;;;1.53;1.07;;;12.20;55.80;;;;;;5399603;26;20238;-60
2024/04/16 06:22:18;;;;;;;3.80;0.87;;;12.30;55.70;;;;;;5402384;26;20646;-61
2024/04/16 06:24:43;;;;;;;2.33;0.80;;;12.20;55.20;;;;;;5406651;26;20257;-61
2024/04/16 06:27:09;;;;;;;4.03;1.30;;;12.30;55.40;;;;;;5401722;26;20768;-60
2024/04/16 06:29:37;;;;;;;2.07;1.30;;;12.20;55.20;;;;;;5409850;26;20252;-60
2024/04/16 06:32:04;;;;;;;4.47;1.40;;;12.20;55.40;;;;;;5395149;26;20282;-60
2024/04/16 06:34:30;;;;;;;2.57;1.10;;;12.30;55.30;;;;;;5395074;26;20524;-60
2024/04/16 06:36:55;;;;;;;7.10;1.67;;;12.40;55.10;;;;;;5402550;26;20813;-60
2024/04/16 06:39:21;;;;;;;3.50;1.40;;;12.40;54.90;;;;;;5397237;26;20822;-60
2024/04/16 06:41:46;;;;;;;2.90;1.20;;;12.50;55.00;;;;;;5403042;26;20639;-58
2024/04/16 06:44:12;;;;;;;2.67;1.17;;;12.60;54.70;;;;;;5396767;26;20278;-60
2024/04/16 06:46:38;;;;;;;2.13;1.07;;;12.70;54.60;;;;;;5385587;26;20272;-60
2024/04/16 06:49:03;;;;;;;4.93;1.20;;;12.90;54.40;;;;;;5406106;26;20241;-60
2024/04/16 06:51:29;;;;;;;3.80;1.20;;;13.00;54.20;;;;;;5404096;26;20237;-59
2024/04/16 06:53:55;;;;;;;4.10;1.40;;;13.10;54.30;;;;;;5399209;26;20250;-59
2024/04/16 06:56:20;;;;;;;2.93;1.60;;;13.10;54.10;;;;;;5404328;26;20472;-59
2024/04/16 06:58:46;;;;;;;4.00;1.77;;;13.20;54.10;;;;;;5400542;26;20231;-60
2024/04/16 07:01:11;;;;;;;3.67;1.60;;;13.10;54.30;;;;;;5391888;26;20283;-60
2024/04/16 07:03:37;;;;;;;4.17;1.50;;;13.30;54.00;;;;;;5403225;26;20249;-59
2024/04/16 07:06:02;;;;;;;3.87;1.30;;;13.30;53.40;;;;;;5403103;26;20812;-60
2024/04/16 07:08:28;;;;;;;6.80;1.77;;;13.30;53.00;;;;;;5405958;26;20245;-59
2024/04/16 07:10:54;;;;;;;5.03;1.70;;;13.30;52.70;;;;;;5407246;26;22009;-59
2024/04/16 07:13:20;;;;;;;4.57;1.53;;;13.30;52.50;;;;;;5410034;26;20284;-60
2024/04/16 07:15:46;;;;;;;5.50;1.63;;;13.20;52.50;;;;;;5409916;26;20475;-60
2024/04/16 07:18:11;;;;;;;3.17;1.43;;;13.20;52.50;;;;;;5399412;26;20579;-60
2024/04/16 07:20:37;;;;;;;3.03;1.60;;;12.90;51.00;;;;;;5404344;26;20230;-60
2024/04/16 07:23:03;;;;;;;6.87;1.47;;;12.70;51.40;;;;;;5401676;26;22283;-61
2024/04/16 07:25:28;;;;;;;7.87;2.53;;;12.80;51.20;;;;;;5408030;26;20280;-60
2024/04/16 07:27:54;;;;;;;4.47;1.60;;;12.80;51.40;;;;;;5410978;26;20313;-60
2024/04/16 07:30:19;;;;;;;2.83;1.33;;;12.80;51.10;;;;;;5402597;26;20783;-60
2024/04/16 07:32:45;;;;;;;4.93;1.40;;;12.60;50.90;;;;;;5399459;26;20246;-60
2024/04/16 07:35:11;;;;;;;4.10;1.40;;;12.60;50.80;;;;;;5395667;26;20472;-60
2024/04/16 07:37:37;;;;;;;5.77;1.47;;;12.60;50.30;;;;;;5394557;26;20488;-60
2024/04/16 07:40:03;;;;;;;5.17;1.47;;;12.50;49.70;;;;;;5408995;26;20237;-60
2024/04/16 07:42:29;;;;;;;3.93;1.33;;;12.70;49.80;;;;;;5396954;26;20238;-60
2024/04/16 07:44:54;;;;;;;3.93;1.23;;;12.60;49.50;;;;;;5407254;26;20471;-59
2024/04/16 07:47:21;;;;;;;4.10;1.60;;;12.40;48.10;;;;;;5409041;26;20248;-59
2024/04/16 07:49:47;;;;;;;3.13;1.27;;;12.30;47.20;;;;;;5402799;26;20238;-61
2024/04/16 07:52:12;;;;;;;5.63;1.60;;;12.20;45.80;;;;;;5394704;26;21108;-56
2024/04/16 07:54:38;;;;;;;5.90;1.30;;;12.30;46.30;;;;;;5400935;26;20246;-60
2024/04/16 07:57:04;;;;;;;4.23;1.87;;;12.20;45.00;;;;;;5396236;26;20711;-59
2024/04/16 07:59:29;;;;;;;4.83;1.70;;;12.00;46.20;;;;;;5390975;26;20289;-60
2024/04/16 08:01:55;;;;;;;3.53;1.50;;;12.30;46.30;;;;;;5397583;26;20273;-59
2024/04/16 08:04:20;;;;;;;4.67;1.60;;;12.60;45.70;;;;;;5397488;26;20665;-57
2024/04/16 08:06:46;;;;;;;2.90;1.13;;;12.80;45.40;;;;;;5411793;26;20318;-60
2024/04/16 08:09:12;;;;;;;3.00;1.13;;;12.80;44.70;;;;;;5389920;26;20238;-58
2024/04/16 08:11:37;;;;;;;5.47;1.73;;;12.60;43.40;;;;;;5400130;26;20322;-60
2024/04/16 08:14:03;;;;;;;2.83;1.20;;;12.60;43.10;;;;;;5410768;26;20572;-59
2024/04/16 08:16:29;;;;;;;2.67;1.00;;;12.70;44.20;;;;;;5402118;26;20681;-57
2024/04/16 08:18:55;;;;;;;2.97;1.10;;;12.80;44.40;;;;;;5400795;26;20268;-59
2024/04/16 08:21:22;;;;;;;1.10;1.00;;;12.40;43.00;;;;;;5395477;26;20487;-59
2024/04/16 08:23:51;;;;;;;3.00;1.33;;;12.20;43.50;;;;;;5391132;26;20479;-57
2024/04/16 08:26:17;;;;;;;2.30;1.17;;;12.60;45.10;;;;;;5397040;26;20907;-55
2024/04/16 08:28:43;;;;;;;3.97;1.50;;;12.90;44.30;;;;;;5406514;26;20465;-58
2024/04/16 08:31:08;;;;;;;6.23;1.40;;;12.90;43.90;;;;;;5405201;26;20238;-57
2024/04/16 08:33:34;;;;;;;6.00;1.20;;;13.00;43.70;;;;;;5406507;26;20276;-57
2024/04/16 08:35:59;;;;;;;4.27;1.27;;;12.90;42.70;;;;;;5405394;26;20233;-58
2024/04/16 08:38:25;;;;;;;1.30;1.20;;;12.90;43.50;;;;;;5409572;26;20245;-60
2024/04/16 08:40:51;;;;;;;1.33;1.03;;;12.70;44.00;;;;;;5408011;26;20276;-57
2024/04/16 08:43:16;;;;;;;4.20;1.63;;;12.90;44.50;;;;;;5406548;26;20271;-57
2024/04/16 08:45:43;;;;;;;4.70;1.30;;;13.10;44.60;;;;;;5405345;26;20253;-58
2024/04/16 08:48:09;;;;;;;1.47;0.90;;;12.90;43.60;;;;;;5400311;26;20293;-57
2024/04/16 08:50:36;;;;;;;3.13;1.00;;;12.80;43.40;;;;;;5400826;26;20576;-56
2024/04/16 08:53:03;;;;;;;4.87;1.37;;;12.90;44.10;;;;;;5402465;26;20570;-59
2024/04/16 08:55:30;;;;;;;7.37;1.30;;;12.90;43.60;;;;;;5398214;26;20518;-58
2024/04/16 08:57:56;;;;;;;3.40;1.10;;;12.70;42.60;;;;;;5405850;26;20524;-59
2024/04/16 09:00:22;;;;;;;1.67;0.90;;;13.00;43.60;;;;;;5407540;26;20562;-59
2024/04/16 09:02:50;;;;;;;2.70;1.00;;;12.60;41.70;;;;;;5402583;26;21123;-58
2024/04/16 09:05:17;;;;;;;2.43;1.10;;;12.50;42.80;;;;;;5403578;26;20535;-56
2024/04/16 09:07:43;;;;;;;2.20;1.20;;;12.40;42.70;;;;;;5386293;26;20576;-57
2024/04/16 09:10:15;;;;;;;5.43;1.50;;;12.40;43.30;;;;;;5396994;26;20483;-58
2024/04/16 09:12:44;;;;;;;0.83;0.80;;;12.70;43.50;;;;;;5405876;26;20279;-58
2024/04/16 09:15:12;;;;;;;2.30;1.33;;;12.70;43.40;;;;;;5409406;26;20471;-57
2024/04/16 09:17:49;;;;;;;5.03;1.10;;;12.70;43.90;;;;;;5395266;26;20541;-58
2024/04/16 09:20:24;;;;;;;2.60;0.93;;;12.70;44.00;;;;;;5401239;26;20475;-56
2024/04/16 09:22:51;;;;;;;4.70;1.27;;;12.70;43.00;;;;;;5396889;26;20605;-58
2024/04/16 09:25:21;;;;;;;3.63;1.20;;;12.70;42.90;;;;;;5404318;26;20471;-57
2024/04/16 09:27:56;;;;;;;1.50;1.03;;;12.50;42.60;;;;;;5407343;26;20475;-59
2024/04/16 09:30:23;;;;;;;6.53;1.10;;;12.50;43.40;;;;;;5395124;26;20510;-57
2024/04/16 09:33:00;;;;;;;1.57;0.90;;;12.80;43.60;;;;;;5406728;26;20455;-60
2024/04/16 09:35:30;;;;;;;2.17;1.17;;;13.00;42.70;;;;;;5400149;26;20566;-58
2024/04/16 09:38:08;;;;;;;3.73;1.07;;;13.20;43.50;;;;;;5387441;26;21057;-59
2024/04/16 09:40:34;;;;;;;3.10;1.03;;;13.40;43.20;;;;;;5399414;26;20455;-58
2024/04/16 09:43:01;;;;;;;2.80;1.43;;;13.00;42.10;;;;;;5403020;26;20534;-58
2024/04/16 09:45:30;;;;;;;3.70;0.80;;;13.10;42.80;;;;;;5393342;26;20516;-59
2024/04/16 09:47:57;;;;;;;1.63;1.07;;;13.10;42.80;;;;;;5396350;26;20464;-59
2024/04/16 09:50:26;;;;;;;1.67;0.73;;;13.30;42.40;;;;;;5404307;26;20874;-58
2024/04/16 09:52:54;;;;;;;1.20;0.93;;;13.40;43.00;;;;;;5402293;26;20582;-59
2024/04/16 09:55:23;;;;;;;2.60;1.10;;;13.40;42.80;;;;;;5407207;26;20479;-59
2024/04/16 09:57:50;;;;;;;2.50;1.67;;;13.50;42.60;;;;;;5389292;26;20606;-59
2024/04/16 10:00:17;;;;;;;2.77;0.90;;;13.60;42.30;;;;;;5389150;26;20467;-58
2024/04/16 10:02:44;;;;;;;1.60;1.10;;;13.50;42.40;;;;;;5402909;26;20479;-57
2024/04/16 10:05:11;;;;;;;3.40;1.40;;;13.70;42.90;;;;;;5398531;26;20516;-58
2024/04/16 10:07:41;;;;;;;2.60;1.17;;;13.60;43.00;;;;;;5403261;26;21079;-58
2024/04/16 10:10:08;;;;;;;2.90;0.93;;;13.60;43.20;;;;;;5401335;26;20520;-58
2024/04/16 10:12:35;;;;;;;4.10;1.30;;;13.20;43.50;;;;;;5402013;26;20534;-58
2024/04/16 10:15:01;;;;;;;1.00;0.73;;;13.10;44.00;;;;;;5409312;26;21257;-58
2024/04/16 10:17:28;;;;;;;1.60;1.20;;;13.10;44.80;;;;;;5398301;26;20479;-59
2024/04/16 10:19:54;;;;;;;3.77;1.40;;;13.30;45.00;;;;;;5385883;26;21015;-58
2024/04/16 10:22:19;;;;;;;1.77;1.00;;;13.60;44.40;;;;;;5405169;26;20531;-60
2024/04/16 10:24:54;;;;;;;2.33;1.00;;;13.70;44.20;;;;;;5407094;26;20284;-59
2024/04/16 10:27:24;;;;;;;1.93;1.13;;;13.40;44.20;;;;;;5400878;26;20289;-59
2024/04/16 10:30:09;;;;;;;2.73;1.63;;;13.30;44.70;;;;;;5409614;26;20549;-58
2024/04/16 10:32:42;;;;;;;5.87;1.03;;;13.30;44.30;;;;;;5395519;26;20483;-58
2024/04/16 10:35:08;;;;;;;1.60;0.83;;;13.30;44.60;;;;;;5397859;26;20471;-59
2024/04/16 10:37:37;;;;;;;2.83;1.00;;;13.10;44.50;;;;;;5394872;26;20538;-59
2024/04/16 10:40:03;;;;;;;2.57;0.97;;;13.30;45.30;;;;;;5395750;26;20811;-57
2024/04/16 10:42:29;;;;;;;4.37;1.10;;;13.30;44.80;;;;;;5403343;26;20480;-59
2024/04/16 10:44:57;;;;;;;1.87;0.90;;;13.10;45.30;;;;;;5396904;26;20277;-58
2024/04/16 10:47:25;;;;;;;3.77;1.00;;;13.00;46.60;;;;;;5390580;26;20526;-54
2024/04/16 10:49:53;;;;;;;1.13;0.90;;;12.70;46.60;;;;;;5405172;26;20475;-57
2024/04/16 10:52:20;;;;;;;1.23;0.70;;;12.80;47.30;;;;;;5399339;26;20825;-58
2024/04/16 10:54:50;;;;;;;2.50;0.80;;;12.80;47.20;;;;;;5405513;26;20926;-56
2024/04/16 10:57:20;;;;;;;1.93;0.70;;;12.80;46.90;;;;;;5393372;26;20479;-57
2024/04/16 10:59:46;;;;;;;0.80;0.60;;;12.90;47.20;;;;;;5397643;26;20590;-56
2024/04/16 11:02:12;;;;;;;1.43;0.80;;;13.00;46.70;;;;;;5401406;26;20475;-56
2024/04/16 11:04:38;;;;;;;2.40;0.80;;;12.90;46.80;;;;;;5404356;26;20238;-57
2024/04/16 11:07:04;;;;;;;0.97;0.77;;;12.80;47.00;;;;;;5408951;26;20276;-59
2024/04/16 11:09:30;;;;;;;4.53;0.80;;;12.80;47.30;;;;;;5392789;26;21331;-59
2024/04/16 11:11:56;;;;;;;2.43;0.80;;;12.80;47.20;;;;;;5399472;26;20461;-59
2024/04/16 11:14:23;;;;;;;1.83;0.80;;;13.00;47.40;;;;;;5398609;26;20547;-58
2024/04/16 11:16:49;;;;;;;1.20;1.00;;;13.20;47.00;;;;;;5402365;26;20246;-58
2024/04/16 11:19:16;;;;;;;3.23;0.90;;;13.50;46.70;;;;;;5396337;26;21034;-59
2024/04/16 11:21:41;;;;;;;2.50;1.77;;;13.70;46.20;;;;;;5393879;26;20355;-58
2024/04/16 11:24:08;;;;;;;2.40;1.20;;;13.60;45.70;;;;;;5402225;26;20483;-58
2024/04/16 11:26:33;;;;;;;2.20;0.77;;;13.20;46.40;;;;;;5396040;26;20222;-57
2024/04/16 11:29:01;;;;;;;1.30;1.03;;;12.90;47.00;;;;;;5407028;26;20471;-56
2024/04/16 11:31:27;;;;;;;1.43;0.80;;;13.30;48.20;;;;;;5403683;26;20230;-57
2024/04/16 11:33:54;;;;;;;3.13;0.70;;;13.50;47.30;;;;;;5393481;26;20469;-57
2024/04/16 11:36:20;;;;;;;1.63;0.90;;;13.50;47.40;;;;;;5397325;26;20306;-57
2024/04/16 11:38:46;;;;;;;4.17;0.87;;;13.50;47.90;;;;;;5400248;26;20468;-57
2024/04/16 11:41:14;;;;;;;1.90;0.80;;;13.20;47.80;;;;;;5401361;26;20241;-58
2024/04/16 11:43:41;;;;;;;2.67;0.70;;;13.10;47.20;;;;;;5397773;26;20245;-57
2024/04/16 11:46:07;;;;;;;1.27;0.70;;;13.20;47.40;;;;;;5395925;26;21314;-58
2024/04/16 11:48:34;;;;;;;1.43;0.70;;;13.10;47.50;;;;;;5398631;26;20475;-56
2024/04/16 11:51:00;;;;;;;0.77;0.77;;;13.00;47.10;;;;;;5400267;26;21019;-58
2024/04/16 11:53:26;;;;;;;2.23;0.80;;;13.20;47.70;;;;;;5392585;26;20586;-57
2024/04/16 11:55:51;;;;;;;0.70;0.60;;;13.30;47.50;;;;;;5403934;26;20233;-55
2024/04/16 11:58:17;;;;;;;1.20;0.80;;;13.40;47.40;;;;;;5400969;26;20246;-58
2024/04/16 12:00:42;;;;;;;2.03;1.10;;;13.50;47.00;;;;;;5394986;26;21061;-56
2024/04/16 12:03:08;;;;;;;1.70;1.33;;;13.60;47.00;;;;;;5406638;26;20776;-58
2024/04/16 12:05:34;;;;;;;1.30;0.80;;;13.40;47.90;;;;;;5402730;26;20250;-58
2024/04/16 12:08:00;;;;;;;3.30;0.90;;;13.30;48.70;;;;;;5400683;26;20480;-59
2024/04/16 12:10:27;;;;;;;1.27;0.70;;;12.90;48.10;;;;;;5398812;26;20475;-58
2024/04/16 12:12:54;;;;;;;0.70;0.63;;;12.80;49.10;;;;;;5398761;26;20468;-57
2024/04/16 12:15:19;;;;;;;1.47;0.80;;;13.30;49.30;;;;;;5397096;26;20552;-58
2024/04/16 12:17:45;;;;;;;0.83;0.70;;;13.60;49.00;;;;;;5387612;26;20485;-56
2024/04/16 12:20:10;;;;;;;1.00;0.73;;;13.50;48.10;;;;;;5389679;26;20238;-58
2024/04/16 12:22:37;;;;;;;1.13;0.63;;;13.40;47.90;;;;;;5399388;26;20254;-55
2024/04/16 12:25:02;;;;;;;1.43;0.70;;;13.30;49.00;;;;;;5391814;26;20246;-56
2024/04/16 12:27:28;;;;;;;1.57;0.90;;;13.50;48.00;;;;;;5397786;26;20523;-59
2024/04/16 12:29:54;;;;;;;1.57;0.80;;;13.40;48.40;;;;;;5393409;26;20280;-58
2024/04/16 12:32:20;;;;;;;1.20;1.00;;;13.50;47.30;;;;;;5398437;26;20283;-58
2024/04/16 12:34:45;;;;;;;1.53;0.80;;;13.50;46.60;;;;;;5383636;26;20546;-56
2024/04/16 12:37:11;;;;;;;1.00;0.73;;;13.60;46.80;;;;;;5397484;26;20395;-58
2024/04/16 12:39:36;;;;;;;4.20;1.10;;;13.80;46.70;;;;;;5395719;26;20241;-57
2024/04/16 12:42:02;;;;;;;2.23;0.70;;;13.70;46.30;;;;;;5389948;26;20235;-58